sensor_id;sensor_type;location;lat;lon;timestamp;temperature;humidity
40257;DHT22;25977;45.462;9.210;2022-09-19T00:01:31;21.60;57.70
40257;DHT22;25977;45.462;9.210;2022-09-19T00:04:04;21.60;56.70
40257;DHT22;25977;45.462;9.210;2022-09-19T00:06:32;21.60;56.60
40257;DHT22;25977;45.462;9.210;2022-09-19T00:08:58;21.50;56.30
40257;DHT22;25977;45.462;9.210;2022-09-19T00:11:25;21.50;56.30
40257;DHT22;25977;45.462;9.210;2022-09-19T00:13:52;21.50;56.20
40257;DHT22;25977;45.462;9.210;2022-09-19T00:16:21;21.40;55.90
40257;DHT22;25977;45.462;9.210;2022-09-19T00:18:47;21.40;56.00
40257;DHT22;25977;45.462;9.210;2022-09-19T00:21:23;21.40;55.80
40257;DHT22;25977;45.462;9.210;2022-09-19T00:23:50;21.50;55.80
40257;DHT22;25977;45.462;9.210;2022-09-19T00:26:35;21.50;55.50
40257;DHT22;25977;45.462;9.210;2022-09-19T00:29:02;21.50;55.30
40257;DHT22;25977;45.462;9.210;2022-09-19T00:31:28;21.50;55.10
40257;DHT22;25977;45.462;9.210;2022-09-19T00:33:54;21.50;55.10
40257;DHT22;25977;45.462;9.210;2022-09-19T00:36:20;21.50;55.70
40257;DHT22;25977;45.462;9.210;2022-09-19T00:38:47;21.50;55.00
40257;DHT22;25977;45.462;9.210;2022-09-19T00:41:22;21.50;55.00
40257;DHT22;25977;45.462;9.210;2022-09-19T00:44:00;21.50;55.10
40257;DHT22;25977;45.462;9.210;2022-09-19T00:46:30;21.50;55.40
40257;DHT22;25977;45.462;9.210;2022-09-19T00:49:03;21.50;55.40
40257;DHT22;25977;45.462;9.210;2022-09-19T00:51:42;21.50;55.40
40257;DHT22;25977;45.462;9.210;2022-09-19T00:54:16;21.40;55.30
40257;DHT22;25977;45.462;9.210;2022-09-19T00:56:46;21.50;55.30
40257;DHT22;25977;45.462;9.210;2022-09-19T00:59:14;21.40;55.20
40257;DHT22;25977;45.462;9.210;2022-09-19T01:01:42;21.40;55.40
40257;DHT22;25977;45.462;9.210;2022-09-19T01:04:34;21.30;55.40
40257;DHT22;25977;45.462;9.210;2022-09-19T01:07:34;21.40;55.60
40257;DHT22;25977;45.462;9.210;2022-09-19T01:15:45;21.20;55.50
40257;DHT22;25977;45.462;9.210;2022-09-19T01:18:22;21.20;55.80
40257;DHT22;25977;45.462;9.210;2022-09-19T01:21:36;21.20;55.80
40257;DHT22;25977;45.462;9.210;2022-09-19T01:32:59;21.10;56.70
40257;DHT22;25977;45.462;9.210;2022-09-19T01:35:28;21.10;57.50
40257;DHT22;25977;45.462;9.210;2022-09-19T01:38:16;21.20;57.80
40257;DHT22;25977;45.462;9.210;2022-09-19T01:40:46;21.20;58.00
40257;DHT22;25977;45.462;9.210;2022-09-19T01:43:14;21.20;58.10
40257;DHT22;25977;45.462;9.210;2022-09-19T01:45:40;21.20;58.90
40257;DHT22;25977;45.462;9.210;2022-09-19T01:53:27;21.10;59.10
40257;DHT22;25977;45.462;9.210;2022-09-19T01:56:41;21.20;59.20
40257;DHT22;25977;45.462;9.210;2022-09-19T02:05:02;21.10;59.40
40257;DHT22;25977;45.462;9.210;2022-09-19T02:07:44;21.10;59.40
40257;DHT22;25977;45.462;9.210;2022-09-19T02:10:33;21.10;59.40
40257;DHT22;25977;45.462;9.210;2022-09-19T02:13:01;21.10;59.90
40257;DHT22;25977;45.462;9.210;2022-09-19T02:15:53;21.10;59.40
40257;DHT22;25977;45.462;9.210;2022-09-19T02:18:35;21.10;59.60
40257;DHT22;25977;45.462;9.210;2022-09-19T02:21:07;21.10;59.50
40257;DHT22;25977;45.462;9.210;2022-09-19T02:23:38;21.10;59.60
40257;DHT22;25977;45.462;9.210;2022-09-19T02:26:06;21.10;59.80
40257;DHT22;25977;45.462;9.210;2022-09-19T02:28:41;21.10;59.90
40257;DHT22;25977;45.462;9.210;2022-09-19T02:31:12;21.00;59.90
40257;DHT22;25977;45.462;9.210;2022-09-19T02:33:40;21.00;60.00
40257;DHT22;25977;45.462;9.210;2022-09-19T02:36:15;21.00;60.10
40257;DHT22;25977;45.462;9.210;2022-09-19T02:39:19;21.10;60.00
40257;DHT22;25977;45.462;9.210;2022-09-19T02:42:22;21.10;60.00
40257;DHT22;25977;45.462;9.210;2022-09-19T02:50:35;21.00;60.00
40257;DHT22;25977;45.462;9.210;2022-09-19T02:53:05;21.00;60.00
40257;DHT22;25977;45.462;9.210;2022-09-19T02:55:38;21.00;60.10
40257;DHT22;25977;45.462;9.210;2022-09-19T02:58:07;21.00;59.90
40257;DHT22;25977;45.462;9.210;2022-09-19T03:00:36;21.00;59.90
40257;DHT22;25977;45.462;9.210;2022-09-19T03:03:13;21.00;59.90
40257;DHT22;25977;45.462;9.210;2022-09-19T03:06:01;21.00;59.90
40257;DHT22;25977;45.462;9.210;2022-09-19T03:08:29;21.00;59.80
40257;DHT22;25977;45.462;9.210;2022-09-19T03:11:07;21.00;59.80
40257;DHT22;25977;45.462;9.210;2022-09-19T03:13:35;20.80;59.50
40257;DHT22;25977;45.462;9.210;2022-09-19T03:16:30;20.90;59.40
40257;DHT22;25977;45.462;9.210;2022-09-19T03:19:06;20.70;59.30
40257;DHT22;25977;45.462;9.210;2022-09-19T03:21:34;20.80;59.30
40257;DHT22;25977;45.462;9.210;2022-09-19T03:24:02;20.80;59.20
40257;DHT22;25977;45.462;9.210;2022-09-19T03:26:31;20.80;58.80
40257;DHT22;25977;45.462;9.210;2022-09-19T03:29:01;20.90;58.50
40257;DHT22;25977;45.462;9.210;2022-09-19T03:31:34;20.80;58.40
40257;DHT22;25977;45.462;9.210;2022-09-19T03:34:03;20.70;58.30
40257;DHT22;25977;45.462;9.210;2022-09-19T03:36:29;20.80;57.80
40257;DHT22;25977;45.462;9.210;2022-09-19T03:38:56;20.70;57.80
40257;DHT22;25977;45.462;9.210;2022-09-19T03:41:31;20.40;57.60
40257;DHT22;25977;45.462;9.210;2022-09-19T03:44:00;20.50;56.90
40257;DHT22;25977;45.462;9.210;2022-09-19T03:46:28;20.50;56.90
40257;DHT22;25977;45.462;9.210;2022-09-19T03:48:57;20.40;56.40
40257;DHT22;25977;45.462;9.210;2022-09-19T03:51:23;20.40;56.20
40257;DHT22;25977;45.462;9.210;2022-09-19T03:53:50;20.40;56.00
40257;DHT22;25977;45.462;9.210;2022-09-19T03:56:19;20.40;55.80
40257;DHT22;25977;45.462;9.210;2022-09-19T03:58:46;20.40;55.80
40257;DHT22;25977;45.462;9.210;2022-09-19T04:01:13;20.40;55.60
40257;DHT22;25977;45.462;9.210;2022-09-19T04:03:42;20.40;55.60
40257;DHT22;25977;45.462;9.210;2022-09-19T04:06:09;20.40;55.20
40257;DHT22;25977;45.462;9.210;2022-09-19T04:08:35;20.40;54.80
40257;DHT22;25977;45.462;9.210;2022-09-19T04:11:01;20.30;54.70
40257;DHT22;25977;45.462;9.210;2022-09-19T04:13:28;20.20;54.40
40257;DHT22;25977;45.462;9.210;2022-09-19T04:16:03;20.10;54.30
40257;DHT22;25977;45.462;9.210;2022-09-19T04:18:29;19.90;54.30
40257;DHT22;25977;45.462;9.210;2022-09-19T04:20:56;19.70;54.00
40257;DHT22;25977;45.462;9.210;2022-09-19T04:23:28;19.70;54.00
40257;DHT22;25977;45.462;9.210;2022-09-19T04:26:12;19.60;53.80
40257;DHT22;25977;45.462;9.210;2022-09-19T04:28:40;19.50;53.80
40257;DHT22;25977;45.462;9.210;2022-09-19T04:31:09;19.40;53.60
40257;DHT22;25977;45.462;9.210;2022-09-19T04:33:36;19.30;53.80
40257;DHT22;25977;45.462;9.210;2022-09-19T04:36:04;19.40;53.90
40257;DHT22;25977;45.462;9.210;2022-09-19T04:38:32;19.40;53.70
40257;DHT22;25977;45.462;9.210;2022-09-19T04:41:00;19.30;53.60
40257;DHT22;25977;45.462;9.210;2022-09-19T04:43:28;19.30;53.60
40257;DHT22;25977;45.462;9.210;2022-09-19T04:46:15;19.40;53.80
40257;DHT22;25977;45.462;9.210;2022-09-19T04:48:45;19.30;53.70
40257;DHT22;25977;45.462;9.210;2022-09-19T04:51:12;19.40;53.60
40257;DHT22;25977;45.462;9.210;2022-09-19T04:53:38;19.50;53.80
40257;DHT22;25977;45.462;9.210;2022-09-19T04:56:06;19.50;53.70
40257;DHT22;25977;45.462;9.210;2022-09-19T04:58:34;19.70;53.80
40257;DHT22;25977;45.462;9.210;2022-09-19T05:01:03;19.70;53.80
40257;DHT22;25977;45.462;9.210;2022-09-19T05:03:29;19.80;53.80
40257;DHT22;25977;45.462;9.210;2022-09-19T05:05:57;19.80;53.60
40257;DHT22;25977;45.462;9.210;2022-09-19T05:08:31;19.80;53.50
40257;DHT22;25977;45.462;9.210;2022-09-19T05:11:04;19.80;53.60
40257;DHT22;25977;45.462;9.210;2022-09-19T05:13:33;19.80;53.70
40257;DHT22;25977;45.462;9.210;2022-09-19T05:16:00;19.50;53.90
40257;DHT22;25977;45.462;9.210;2022-09-19T05:18:31;19.50;53.90
40257;DHT22;25977;45.462;9.210;2022-09-19T05:21:06;19.50;54.10
40257;DHT22;25977;45.462;9.210;2022-09-19T05:23:34;19.50;54.20
40257;DHT22;25977;45.462;9.210;2022-09-19T05:26:04;19.50;54.10
40257;DHT22;25977;45.462;9.210;2022-09-19T05:28:30;19.60;54.20
40257;DHT22;25977;45.462;9.210;2022-09-19T05:30:56;19.60;54.10
40257;DHT22;25977;45.462;9.210;2022-09-19T05:33:26;19.70;54.00
40257;DHT22;25977;45.462;9.210;2022-09-19T05:35:55;19.80;54.00
40257;DHT22;25977;45.462;9.210;2022-09-19T05:38:41;19.80;53.90
40257;DHT22;25977;45.462;9.210;2022-09-19T05:41:26;19.80;53.80
40257;DHT22;25977;45.462;9.210;2022-09-19T05:43:56;19.80;53.90
40257;DHT22;25977;45.462;9.210;2022-09-19T05:46:22;19.90;53.90
40257;DHT22;25977;45.462;9.210;2022-09-19T05:48:51;20.10;53.90
40257;DHT22;25977;45.462;9.210;2022-09-19T05:51:17;20.10;53.70
40257;DHT22;25977;45.462;9.210;2022-09-19T05:53:43;20.20;53.80
40257;DHT22;25977;45.462;9.210;2022-09-19T05:56:41;20.20;53.70
40257;DHT22;25977;45.462;9.210;2022-09-19T05:59:08;20.30;53.50
40257;DHT22;25977;45.462;9.210;2022-09-19T06:01:36;20.30;53.30
40257;DHT22;25977;45.462;9.210;2022-09-19T06:04:04;20.40;53.10
40257;DHT22;25977;45.462;9.210;2022-09-19T06:06:35;20.10;53.30
40257;DHT22;25977;45.462;9.210;2022-09-19T06:09:02;20.10;53.60
40257;DHT22;25977;45.462;9.210;2022-09-19T06:11:33;20.20;53.40
40257;DHT22;25977;45.462;9.210;2022-09-19T06:13:59;20.30;53.40
40257;DHT22;25977;45.462;9.210;2022-09-19T06:16:42;20.30;53.40
40257;DHT22;25977;45.462;9.210;2022-09-19T06:19:16;20.30;53.30
40257;DHT22;25977;45.462;9.210;2022-09-19T06:21:45;20.30;53.30
40257;DHT22;25977;45.462;9.210;2022-09-19T06:24:12;20.20;53.70
40257;DHT22;25977;45.462;9.210;2022-09-19T06:26:38;20.40;53.50
40257;DHT22;25977;45.462;9.210;2022-09-19T06:29:03;20.60;52.90
40257;DHT22;25977;45.462;9.210;2022-09-19T06:31:29;20.60;51.40
40257;DHT22;25977;45.462;9.210;2022-09-19T06:34:07;20.80;49.60
40257;DHT22;25977;45.462;9.210;2022-09-19T06:36:37;21.60;47.00
40257;DHT22;25977;45.462;9.210;2022-09-19T06:39:04;23.20;43.70
40257;DHT22;25977;45.462;9.210;2022-09-19T06:41:39;25.00;41.40
40257;DHT22;25977;45.462;9.210;2022-09-19T06:44:18;26.80;40.80
40257;DHT22;25977;45.462;9.210;2022-09-19T06:47:02;28.60;38.90
40257;DHT22;25977;45.462;9.210;2022-09-19T06:49:33;29.90;37.50
40257;DHT22;25977;45.462;9.210;2022-09-19T06:52:14;31.00;36.10
40257;DHT22;25977;45.462;9.210;2022-09-19T06:54:40;31.60;34.80
40257;DHT22;25977;45.462;9.210;2022-09-19T06:57:06;32.20;33.60
40257;DHT22;25977;45.462;9.210;2022-09-19T06:59:32;32.40;33.10
40257;DHT22;25977;45.462;9.210;2022-09-19T07:01:58;32.30;32.40
40257;DHT22;25977;45.462;9.210;2022-09-19T07:04:24;32.20;32.20
40257;DHT22;25977;45.462;9.210;2022-09-19T07:07:09;32.60;32.00
40257;DHT22;25977;45.462;9.210;2022-09-19T07:09:44;32.70;32.00
40257;DHT22;25977;45.462;9.210;2022-09-19T07:12:11;32.60;32.00
40257;DHT22;25977;45.462;9.210;2022-09-19T07:14:37;32.70;31.60
40257;DHT22;25977;45.462;9.210;2022-09-19T07:17:04;33.00;31.60
40257;DHT22;25977;45.462;9.210;2022-09-19T07:19:30;33.20;31.80
40257;DHT22;25977;45.462;9.210;2022-09-19T07:22:14;32.50;31.80
40257;DHT22;25977;45.462;9.210;2022-09-19T07:25:10;30.90;31.60
40257;DHT22;25977;45.462;9.210;2022-09-19T07:27:54;29.50;32.10
40257;DHT22;25977;45.462;9.210;2022-09-19T07:30:21;28.30;31.50
40257;DHT22;25977;45.462;9.210;2022-09-19T07:32:47;27.50;31.80
40257;DHT22;25977;45.462;9.210;2022-09-19T07:35:13;26.90;32.40
40257;DHT22;25977;45.462;9.210;2022-09-19T07:37:39;26.00;32.20
40257;DHT22;25977;45.462;9.210;2022-09-19T07:40:25;25.80;32.20
40257;DHT22;25977;45.462;9.210;2022-09-19T07:43:00;25.40;32.20
40257;DHT22;25977;45.462;9.210;2022-09-19T07:45:50;24.80;32.10
40257;DHT22;25977;45.462;9.210;2022-09-19T07:48:35;24.40;32.20
40257;DHT22;25977;45.462;9.210;2022-09-19T07:51:21;24.60;32.40
40257;DHT22;25977;45.462;9.210;2022-09-19T07:53:47;24.70;32.10
40257;DHT22;25977;45.462;9.210;2022-09-19T07:56:15;24.90;32.00
40257;DHT22;25977;45.462;9.210;2022-09-19T07:58:41;24.80;32.00
40257;DHT22;25977;45.462;9.210;2022-09-19T08:01:07;25.00;31.90
40257;DHT22;25977;45.462;9.210;2022-09-19T08:03:55;25.00;31.90
40257;DHT22;25977;45.462;9.210;2022-09-19T08:06:29;24.70;32.30
40257;DHT22;25977;45.462;9.210;2022-09-19T08:08:56;24.90;32.00
40257;DHT22;25977;45.462;9.210;2022-09-19T08:11:50;25.20;31.90
40257;DHT22;25977;45.462;9.210;2022-09-19T08:14:16;25.20;31.40
40257;DHT22;25977;45.462;9.210;2022-09-19T08:16:42;25.20;31.50
40257;DHT22;25977;45.462;9.210;2022-09-19T08:19:10;25.30;31.50
40257;DHT22;25977;45.462;9.210;2022-09-19T08:21:35;25.40;31.80
40257;DHT22;25977;45.462;9.210;2022-09-19T08:24:04;25.70;32.30
40257;DHT22;25977;45.462;9.210;2022-09-19T08:26:30;25.70;31.00
40257;DHT22;25977;45.462;9.210;2022-09-19T08:28:56;25.80;30.90
40257;DHT22;25977;45.462;9.210;2022-09-19T08:31:26;25.80;30.90
40257;DHT22;25977;45.462;9.210;2022-09-19T08:33:52;25.60;30.90
40257;DHT22;25977;45.462;9.210;2022-09-19T08:36:18;25.60;30.80
40257;DHT22;25977;45.462;9.210;2022-09-19T08:38:47;25.70;30.70
40257;DHT22;25977;45.462;9.210;2022-09-19T08:44:03;25.90;31.60
40257;DHT22;25977;45.462;9.210;2022-09-19T08:49:36;26.20;30.90
40257;DHT22;25977;45.462;9.210;2022-09-19T08:54:50;26.10;31.10
40257;DHT22;25977;45.462;9.210;2022-09-19T08:57:30;26.20;31.00
40257;DHT22;25977;45.462;9.210;2022-09-19T09:00:09;26.40;31.10
40257;DHT22;25977;45.462;9.210;2022-09-19T09:02:54;26.60;31.10
40257;DHT22;25977;45.462;9.210;2022-09-19T09:22:33;25.90;30.70
40257;DHT22;25977;45.462;9.210;2022-09-19T09:25:22;26.00;30.30
40257;DHT22;25977;45.462;9.210;2022-09-19T09:28:05;26.00;30.40
40257;DHT22;25977;45.462;9.210;2022-09-19T09:30:51;26.00;30.50
40257;DHT22;25977;45.462;9.210;2022-09-19T09:33:30;25.90;30.90
40257;DHT22;25977;45.462;9.210;2022-09-19T09:36:02;26.00;30.80
40257;DHT22;25977;45.462;9.210;2022-09-19T09:38:34;26.10;31.00
40257;DHT22;25977;45.462;9.210;2022-09-19T09:47:15;26.20;30.00
40257;DHT22;25977;45.462;9.210;2022-09-19T09:49:29;26.30;30.30
40257;DHT22;25977;45.462;9.210;2022-09-19T09:54:56;26.30;31.10
40257;DHT22;25977;45.462;9.210;2022-09-19T09:58:10;26.20;30.80
40257;DHT22;25977;45.462;9.210;2022-09-19T10:00:43;26.40;30.40
40257;DHT22;25977;45.462;9.210;2022-09-19T10:03:58;26.30;30.40
40257;DHT22;25977;45.462;9.210;2022-09-19T10:06:40;26.10;30.00
40257;DHT22;25977;45.462;9.210;2022-09-19T10:09:30;26.20;30.70
40257;DHT22;25977;45.462;9.210;2022-09-19T10:12:02;26.40;30.70
40257;DHT22;25977;45.462;9.210;2022-09-19T10:14:36;26.50;30.50
40257;DHT22;25977;45.462;9.210;2022-09-19T10:17:24;26.50;30.20
40257;DHT22;25977;45.462;9.210;2022-09-19T10:19:57;26.70;30.00
40257;DHT22;25977;45.462;9.210;2022-09-19T10:22:26;26.70;30.50
40257;DHT22;25977;45.462;9.210;2022-09-19T10:25:08;26.80;30.70
40257;DHT22;25977;45.462;9.210;2022-09-19T10:27:38;26.70;29.60
40257;DHT22;25977;45.462;9.210;2022-09-19T10:30:23;26.40;29.50
40257;DHT22;25977;45.462;9.210;2022-09-19T10:32:56;26.40;30.00
40257;DHT22;25977;45.462;9.210;2022-09-19T10:35:38;26.30;29.60
40257;DHT22;25977;45.462;9.210;2022-09-19T10:38:17;26.30;29.30
40257;DHT22;25977;45.462;9.210;2022-09-19T10:40:56;26.30;29.40
40257;DHT22;25977;45.462;9.210;2022-09-19T10:43:48;26.20;29.80
40257;DHT22;25977;45.462;9.210;2022-09-19T10:46:29;26.30;30.30
40257;DHT22;25977;45.462;9.210;2022-09-19T10:49:32;26.40;29.60
40257;DHT22;25977;45.462;9.210;2022-09-19T10:52:00;26.50;29.60
40257;DHT22;25977;45.462;9.210;2022-09-19T10:56:52;26.60;29.60
40257;DHT22;25977;45.462;9.210;2022-09-19T10:59:28;26.60;29.70
40257;DHT22;25977;45.462;9.210;2022-09-19T11:02:26;26.60;29.20
40257;DHT22;25977;45.462;9.210;2022-09-19T11:05:00;26.70;29.30
40257;DHT22;25977;45.462;9.210;2022-09-19T11:07:45;26.80;29.20
40257;DHT22;25977;45.462;9.210;2022-09-19T11:13:17;26.80;29.10
40257;DHT22;25977;45.462;9.210;2022-09-19T11:16:17;26.70;29.00
40257;DHT22;25977;45.462;9.210;2022-09-19T11:18:54;26.70;29.50
40257;DHT22;25977;45.462;9.210;2022-09-19T11:32:54;26.60;29.00
40257;DHT22;25977;45.462;9.210;2022-09-19T11:36:08;26.60;29.10
40257;DHT22;25977;45.462;9.210;2022-09-19T11:38:53;26.40;28.90
40257;DHT22;25977;45.462;9.210;2022-09-19T11:50:19;26.90;29.60
40257;DHT22;25977;45.462;9.210;2022-09-19T12:01:35;26.90;29.20
40257;DHT22;25977;45.462;9.210;2022-09-19T12:12:13;26.70;29.30
40257;DHT22;25977;45.462;9.210;2022-09-19T12:15:21;26.80;29.30
40257;DHT22;25977;45.462;9.210;2022-09-19T12:20:44;26.90;29.00
40257;DHT22;25977;45.462;9.210;2022-09-19T12:23:29;27.00;28.40
40257;DHT22;25977;45.462;9.210;2022-09-19T12:26:26;27.00;28.50
40257;DHT22;25977;45.462;9.210;2022-09-19T12:29:23;27.10;28.70
40257;DHT22;25977;45.462;9.210;2022-09-19T12:32:00;27.10;28.50
40257;DHT22;25977;45.462;9.210;2022-09-19T12:34:37;27.30;28.70
40257;DHT22;25977;45.462;9.210;2022-09-19T12:38:03;27.20;28.30
40257;DHT22;25977;45.462;9.210;2022-09-19T12:42:57;27.30;28.30
40257;DHT22;25977;45.462;9.210;2022-09-19T12:49:08;27.30;28.10
40257;DHT22;25977;45.462;9.210;2022-09-19T12:54:39;27.20;28.40
40257;DHT22;25977;45.462;9.210;2022-09-19T12:57:34;27.20;27.90
40257;DHT22;25977;45.462;9.210;2022-09-19T13:00:04;27.30;27.90
40257;DHT22;25977;45.462;9.210;2022-09-19T13:02:35;27.30;28.20
40257;DHT22;25977;45.462;9.210;2022-09-19T13:05:38;27.30;28.30
40257;DHT22;25977;45.462;9.210;2022-09-19T13:16:31;27.50;28.50
40257;DHT22;25977;45.462;9.210;2022-09-19T13:18:58;27.70;28.30
40257;DHT22;25977;45.462;9.210;2022-09-19T13:21:45;27.70;28.00
40257;DHT22;25977;45.462;9.210;2022-09-19T13:27:08;27.60;28.00
40257;DHT22;25977;45.462;9.210;2022-09-19T13:32:25;27.60;27.70
40257;DHT22;25977;45.462;9.210;2022-09-19T13:43:01;27.40;27.80
40257;DHT22;25977;45.462;9.210;2022-09-19T13:45:33;27.40;28.00
40257;DHT22;25977;45.462;9.210;2022-09-19T13:48:18;27.50;27.90
40257;DHT22;25977;45.462;9.210;2022-09-19T13:51:06;27.30;27.60
40257;DHT22;25977;45.462;9.210;2022-09-19T13:53:42;27.40;27.90
40257;DHT22;25977;45.462;9.210;2022-09-19T13:56:26;27.50;28.10
40257;DHT22;25977;45.462;9.210;2022-09-19T14:04:19;27.30;28.20
40257;DHT22;25977;45.462;9.210;2022-09-19T14:07:04;27.30;28.30
40257;DHT22;25977;45.462;9.210;2022-09-19T14:09:34;27.10;28.30
40257;DHT22;25977;45.462;9.210;2022-09-19T14:12:01;27.20;28.20
40257;DHT22;25977;45.462;9.210;2022-09-19T14:19:48;27.00;27.90
40257;DHT22;25977;45.462;9.210;2022-09-19T14:25:25;27.00;28.10
40257;DHT22;25977;45.462;9.210;2022-09-19T14:28:27;27.00;28.20
40257;DHT22;25977;45.462;9.210;2022-09-19T14:36:54;26.90;28.70
40257;DHT22;25977;45.462;9.210;2022-09-19T14:39:48;26.90;28.10
40257;DHT22;25977;45.462;9.210;2022-09-19T14:45:54;26.80;28.10
40257;DHT22;25977;45.462;9.210;2022-09-19T14:51:53;26.70;28.10
40257;DHT22;25977;45.462;9.210;2022-09-19T14:57:30;26.60;28.50
40257;DHT22;25977;45.462;9.210;2022-09-19T15:00:16;26.60;28.50
40257;DHT22;25977;45.462;9.210;2022-09-19T15:02:47;26.60;27.90
40257;DHT22;25977;45.462;9.210;2022-09-19T15:05:22;26.60;28.00
40257;DHT22;25977;45.462;9.210;2022-09-19T15:07:50;26.50;28.20
40257;DHT22;25977;45.462;9.210;2022-09-19T15:10:42;26.50;28.20
40257;DHT22;25977;45.462;9.210;2022-09-19T15:15:41;26.50;28.20
40257;DHT22;25977;45.462;9.210;2022-09-19T15:18:43;26.50;28.50
40257;DHT22;25977;45.462;9.210;2022-09-19T15:21:15;26.50;27.90
40257;DHT22;25977;45.462;9.210;2022-09-19T15:23:43;26.40;28.00
40257;DHT22;25977;45.462;9.210;2022-09-19T15:26:21;26.50;28.30
40257;DHT22;25977;45.462;9.210;2022-09-19T15:29:15;26.40;27.60
40257;DHT22;25977;45.462;9.210;2022-09-19T15:31:43;26.40;28.00
40257;DHT22;25977;45.462;9.210;2022-09-19T15:34:16;26.40;28.30
40257;DHT22;25977;45.462;9.210;2022-09-19T15:36:43;26.40;28.10
40257;DHT22;25977;45.462;9.210;2022-09-19T15:39:11;26.30;28.10
40257;DHT22;25977;45.462;9.210;2022-09-19T15:41:38;26.40;28.20
40257;DHT22;25977;45.462;9.210;2022-09-19T15:44:05;26.40;27.60
40257;DHT22;25977;45.462;9.210;2022-09-19T15:46:41;26.40;28.20
40257;DHT22;25977;45.462;9.210;2022-09-19T15:49:26;26.40;28.10
40257;DHT22;25977;45.462;9.210;2022-09-19T15:51:59;26.40;27.90
40257;DHT22;25977;45.462;9.210;2022-09-19T15:54:28;26.40;27.90
40257;DHT22;25977;45.462;9.210;2022-09-19T15:56:58;26.30;27.40
40257;DHT22;25977;45.462;9.210;2022-09-19T15:59:28;26.30;27.40
40257;DHT22;25977;45.462;9.210;2022-09-19T16:02:00;26.30;27.60
40257;DHT22;25977;45.462;9.210;2022-09-19T16:04:42;26.30;27.30
40257;DHT22;25977;45.462;9.210;2022-09-19T16:07:25;26.10;27.10
40257;DHT22;25977;45.462;9.210;2022-09-19T16:10:23;26.10;27.00
40257;DHT22;25977;45.462;9.210;2022-09-19T16:12:51;26.20;27.00
40257;DHT22;25977;45.462;9.210;2022-09-19T16:15:21;26.10;27.10
40257;DHT22;25977;45.462;9.210;2022-09-19T16:25:58;26.20;26.80
40257;DHT22;25977;45.462;9.210;2022-09-19T16:33:50;26.00;26.90
40257;DHT22;25977;45.462;9.210;2022-09-19T16:36:17;25.90;27.10
40257;DHT22;25977;45.462;9.210;2022-09-19T16:39:18;25.80;27.10
40257;DHT22;25977;45.462;9.210;2022-09-19T16:44:33;25.80;27.50
40257;DHT22;25977;45.462;9.210;2022-09-19T16:47:16;25.70;27.40
40257;DHT22;25977;45.462;9.210;2022-09-19T16:49:44;25.80;27.50
40257;DHT22;25977;45.462;9.210;2022-09-19T16:52:30;25.70;27.60
40257;DHT22;25977;45.462;9.210;2022-09-19T16:54:58;25.70;27.90
40257;DHT22;25977;45.462;9.210;2022-09-19T16:57:26;25.70;27.90
40257;DHT22;25977;45.462;9.210;2022-09-19T16:59:53;25.70;27.90
40257;DHT22;25977;45.462;9.210;2022-09-19T17:02:30;25.70;28.30
40257;DHT22;25977;45.462;9.210;2022-09-19T17:05:13;25.60;28.10
40257;DHT22;25977;45.462;9.210;2022-09-19T17:07:40;25.60;28.30
40257;DHT22;25977;45.462;9.210;2022-09-19T17:10:08;25.60;28.20
40257;DHT22;25977;45.462;9.210;2022-09-19T17:12:34;25.50;28.40
40257;DHT22;25977;45.462;9.210;2022-09-19T17:15:00;25.40;28.30
40257;DHT22;25977;45.462;9.210;2022-09-19T17:17:26;25.40;28.40
40257;DHT22;25977;45.462;9.210;2022-09-19T17:19:51;25.40;28.40
40257;DHT22;25977;45.462;9.210;2022-09-19T17:22:18;25.30;28.40
40257;DHT22;25977;45.462;9.210;2022-09-19T17:24:45;25.40;29.20
40257;DHT22;25977;45.462;9.210;2022-09-19T17:27:11;25.30;28.70
40257;DHT22;25977;45.462;9.210;2022-09-19T17:29:38;25.20;28.60
40257;DHT22;25977;45.462;9.210;2022-09-19T17:32:05;25.20;28.80
40257;DHT22;25977;45.462;9.210;2022-09-19T17:34:32;25.10;28.90
40257;DHT22;25977;45.462;9.210;2022-09-19T17:36:58;25.10;28.90
40257;DHT22;25977;45.462;9.210;2022-09-19T17:39:23;25.10;29.00
40257;DHT22;25977;45.462;9.210;2022-09-19T17:41:49;25.10;29.10
40257;DHT22;25977;45.462;9.210;2022-09-19T17:44:15;25.00;29.20
40257;DHT22;25977;45.462;9.210;2022-09-19T17:46:42;25.10;29.30
40257;DHT22;25977;45.462;9.210;2022-09-19T17:49:08;25.00;29.20
40257;DHT22;25977;45.462;9.210;2022-09-19T17:51:34;24.90;29.30
40257;DHT22;25977;45.462;9.210;2022-09-19T17:54:00;24.90;29.40
40257;DHT22;25977;45.462;9.210;2022-09-19T17:56:27;24.90;29.50
40257;DHT22;25977;45.462;9.210;2022-09-19T17:58:58;24.70;29.50
40257;DHT22;25977;45.462;9.210;2022-09-19T18:01:25;24.70;29.60
40257;DHT22;25977;45.462;9.210;2022-09-19T18:04:10;24.70;29.80
40257;DHT22;25977;45.462;9.210;2022-09-19T18:06:37;24.70;29.80
40257;DHT22;25977;45.462;9.210;2022-09-19T18:09:05;24.60;29.80
40257;DHT22;25977;45.462;9.210;2022-09-19T18:11:31;24.60;29.80
40257;DHT22;25977;45.462;9.210;2022-09-19T18:13:59;24.60;29.80
40257;DHT22;25977;45.462;9.210;2022-09-19T18:16:28;24.60;29.80
40257;DHT22;25977;45.462;9.210;2022-09-19T18:18:55;24.50;29.90
40257;DHT22;25977;45.462;9.210;2022-09-19T18:21:20;24.60;30.00
40257;DHT22;25977;45.462;9.210;2022-09-19T18:23:46;24.60;29.90
40257;DHT22;25977;45.462;9.210;2022-09-19T18:26:14;24.50;30.00
40257;DHT22;25977;45.462;9.210;2022-09-19T18:28:43;24.40;30.00
40257;DHT22;25977;45.462;9.210;2022-09-19T18:33:48;24.30;30.00
40257;DHT22;25977;45.462;9.210;2022-09-19T18:36:17;24.30;30.20
40257;DHT22;25977;45.462;9.210;2022-09-19T18:38:43;24.30;30.30
40257;DHT22;25977;45.462;9.210;2022-09-19T18:41:10;24.20;30.40
40257;DHT22;25977;45.462;9.210;2022-09-19T18:43:37;24.30;30.40
40257;DHT22;25977;45.462;9.210;2022-09-19T18:46:08;24.10;30.50
40257;DHT22;25977;45.462;9.210;2022-09-19T18:48:36;24.00;30.50
40257;DHT22;25977;45.462;9.210;2022-09-19T18:51:16;24.00;30.50
40257;DHT22;25977;45.462;9.210;2022-09-19T18:53:45;24.00;30.60
40257;DHT22;25977;45.462;9.210;2022-09-19T18:56:12;24.00;30.70
40257;DHT22;25977;45.462;9.210;2022-09-19T18:58:38;24.10;30.80
40257;DHT22;25977;45.462;9.210;2022-09-19T19:01:10;24.00;30.80
40257;DHT22;25977;45.462;9.210;2022-09-19T19:03:39;23.90;30.90
40257;DHT22;25977;45.462;9.210;2022-09-19T19:06:08;23.90;31.10
40257;DHT22;25977;45.462;9.210;2022-09-19T19:08:36;23.90;31.00
40257;DHT22;25977;45.462;9.210;2022-09-19T19:11:13;23.90;31.10
40257;DHT22;25977;45.462;9.210;2022-09-19T19:13:39;24.00;31.10
40257;DHT22;25977;45.462;9.210;2022-09-19T19:16:11;23.90;31.30
40257;DHT22;25977;45.462;9.210;2022-09-19T19:18:41;23.90;31.40
40257;DHT22;25977;45.462;9.210;2022-09-19T19:21:09;23.90;31.50
40257;DHT22;25977;45.462;9.210;2022-09-19T19:23:36;23.80;31.60
40257;DHT22;25977;45.462;9.210;2022-09-19T19:26:03;23.80;31.70